sensor_id;sensor_type;location;lat;lon;timestamp;P1;durP1;ratioP1;P2;durP2;ratioP2
16385;SDS011;8302;51.154;4.456;2023-04-24T00:00:54;5.28;;;1.20;;
16385;SDS011;8302;51.154;4.456;2023-04-24T00:03:23;1.20;;;0.98;;
16385;SDS011;8302;51.154;4.456;2023-04-24T00:05:54;3.95;;;1.00;;
16385;SDS011;8302;51.154;4.456;2023-04-24T00:08:22;2.33;;;1.02;;
16385;SDS011;8302;51.154;4.456;2023-04-24T00:10:50;1.17;;;1.02;;
16385;SDS011;8302;51.154;4.456;2023-04-24T00:13:19;1.65;;;1.13;;
16385;SDS011;8302;51.154;4.456;2023-04-24T00:15:48;2.55;;;0.77;;
16385;SDS011;8302;51.154;4.456;2023-04-24T00:18:16;1.77;;;0.82;;
16385;SDS011;8302;51.154;4.456;2023-04-24T00:20:44;1.60;;;1.25;;
16385;SDS011;8302;51.154;4.456;2023-04-24T00:23:13;1.50;;;1.38;;
16385;SDS011;8302;51.154;4.456;2023-04-24T00:25:41;5.18;;;1.02;;
16385;SDS011;8302;51.154;4.456;2023-04-24T00:28:08;2.33;;;1.33;;
16385;SDS011;8302;51.154;4.456;2023-04-24T00:30:36;1.00;;;0.90;;
16385;SDS011;8302;51.154;4.456;2023-04-24T00:33:06;1.05;;;0.73;;
16385;SDS011;8302;51.154;4.456;2023-04-24T00:35:33;1.20;;;1.10;;
16385;SDS011;8302;51.154;4.456;2023-04-24T00:38:02;2.70;;;1.38;;
16385;SDS011;8302;51.154;4.456;2023-04-24T00:40:30;1.60;;;1.20;;
16385;SDS011;8302;51.154;4.456;2023-04-24T00:42:57;3.13;;;1.58;;
16385;SDS011;8302;51.154;4.456;2023-04-24T00:45:26;1.45;;;1.05;;
16385;SDS011;8302;51.154;4.456;2023-04-24T00:47:54;1.80;;;1.15;;
16385;SDS011;8302;51.154;4.456;2023-04-24T00:50:23;2.53;;;0.77;;
16385;SDS011;8302;51.154;4.456;2023-04-24T00:52:51;1.98;;;1.35;;
16385;SDS011;8302;51.154;4.456;2023-04-24T00:55:19;2.90;;;1.40;;
16385;SDS011;8302;51.154;4.456;2023-04-24T00:57:47;1.80;;;1.13;;
16385;SDS011;8302;51.154;4.456;2023-04-24T01:00:16;1.48;;;1.00;;
16385;SDS011;8302;51.154;4.456;2023-04-24T01:02:44;1.35;;;1.10;;
16385;SDS011;8302;51.154;4.456;2023-04-24T01:05:13;2.45;;;1.20;;
16385;SDS011;8302;51.154;4.456;2023-04-24T01:07:44;2.13;;;1.40;;
16385;SDS011;8302;51.154;4.456;2023-04-24T01:10:13;1.83;;;1.20;;
16385;SDS011;8302;51.154;4.456;2023-04-24T01:12:44;2.75;;;1.60;;
16385;SDS011;8302;51.154;4.456;2023-04-24T01:15:12;1.00;;;0.82;;
16385;SDS011;8302;51.154;4.456;2023-04-24T01:17:41;2.50;;;1.50;;
16385;SDS011;8302;51.154;4.456;2023-04-24T01:20:09;3.05;;;1.75;;
16385;SDS011;8302;51.154;4.456;2023-04-24T01:22:41;1.27;;;1.17;;
16385;SDS011;8302;51.154;4.456;2023-04-24T01:25:09;2.70;;;1.00;;
16385;SDS011;8302;51.154;4.456;2023-04-24T01:27:37;1.13;;;1.08;;
16385;SDS011;8302;51.154;4.456;2023-04-24T01:30:06;3.40;;;1.60;;
16385;SDS011;8302;51.154;4.456;2023-04-24T01:32:34;1.33;;;0.82;;
16385;SDS011;8302;51.154;4.456;2023-04-24T01:35:03;1.23;;;1.00;;
16385;SDS011;8302;51.154;4.456;2023-04-24T01:37:31;2.35;;;1.27;;
16385;SDS011;8302;51.154;4.456;2023-04-24T01:40:01;3.03;;;1.40;;
16385;SDS011;8302;51.154;4.456;2023-04-24T01:42:30;1.27;;;1.17;;
16385;SDS011;8302;51.154;4.456;2023-04-24T01:44:58;1.55;;;1.40;;
16385;SDS011;8302;51.154;4.456;2023-04-24T01:47:26;2.75;;;1.40;;
16385;SDS011;8302;51.154;4.456;2023-04-24T01:49:56;2.60;;;1.23;;
16385;SDS011;8302;51.154;4.456;2023-04-24T01:52:24;3.00;;;1.50;;
16385;SDS011;8302;51.154;4.456;2023-04-24T01:54:52;1.60;;;1.15;;
16385;SDS011;8302;51.154;4.456;2023-04-24T01:57:23;1.55;;;1.20;;
16385;SDS011;8302;51.154;4.456;2023-04-24T01:59:51;2.28;;;1.25;;
16385;SDS011;8302;51.154;4.456;2023-04-24T02:02:19;2.35;;;1.27;;
16385;SDS011;8302;51.154;4.456;2023-04-24T02:04:48;1.27;;;1.15;;
16385;SDS011;8302;51.154;4.456;2023-04-24T02:07:16;1.65;;;1.25;;
16385;SDS011;8302;51.154;4.456;2023-04-24T02:09:44;1.83;;;1.42;;
16385;SDS011;8302;51.154;4.456;2023-04-24T02:12:12;2.05;;;1.10;;
16385;SDS011;8302;51.154;4.456;2023-04-24T02:14:41;1.40;;;1.02;;
16385;SDS011;8302;51.154;4.456;2023-04-24T02:17:10;2.00;;;1.25;;
16385;SDS011;8302;51.154;4.456;2023-04-24T02:19:39;3.05;;;1.38;;
16385;SDS011;8302;51.154;4.456;2023-04-24T02:22:09;1.63;;;1.10;;
16385;SDS011;8302;51.154;4.456;2023-04-24T02:24:37;1.85;;;1.35;;
16385;SDS011;8302;51.154;4.456;2023-04-24T02:27:05;1.20;;;1.10;;
16385;SDS011;8302;51.154;4.456;2023-04-24T02:29:34;2.22;;;1.25;;
16385;SDS011;8302;51.154;4.456;2023-04-24T02:32:03;2.97;;;1.27;;
16385;SDS011;8302;51.154;4.456;2023-04-24T02:34:32;1.70;;;1.40;;
16385;SDS011;8302;51.154;4.456;2023-04-24T02:37:00;2.80;;;1.27;;
16385;SDS011;8302;51.154;4.456;2023-04-24T02:39:28;1.95;;;1.48;;
16385;SDS011;8302;51.154;4.456;2023-04-24T02:41:56;1.58;;;1.25;;
16385;SDS011;8302;51.154;4.456;2023-04-24T02:44:24;3.30;;;1.80;;
16385;SDS011;8302;51.154;4.456;2023-04-24T02:46:52;1.58;;;1.17;;
16385;SDS011;8302;51.154;4.456;2023-04-24T02:49:23;1.25;;;1.13;;
16385;SDS011;8302;51.154;4.456;2023-04-24T02:51:51;1.48;;;1.30;;
16385;SDS011;8302;51.154;4.456;2023-04-24T02:54:19;1.77;;;1.13;;
16385;SDS011;8302;51.154;4.456;2023-04-24T02:56:47;1.88;;;1.10;;
16385;SDS011;8302;51.154;4.456;2023-04-24T02:59:15;4.70;;;1.70;;
16385;SDS011;8302;51.154;4.456;2023-04-24T03:01:43;3.58;;;1.58;;
16385;SDS011;8302;51.154;4.456;2023-04-24T03:04:11;0.98;;;0.98;;
16385;SDS011;8302;51.154;4.456;2023-04-24T03:06:40;1.17;;;0.93;;
16385;SDS011;8302;51.154;4.456;2023-04-24T03:09:08;2.17;;;1.10;;
16385;SDS011;8302;51.154;4.456;2023-04-24T03:11:37;2.20;;;1.10;;
16385;SDS011;8302;51.154;4.456;2023-04-24T03:14:07;1.10;;;1.00;;
16385;SDS011;8302;51.154;4.456;2023-04-24T03:16:37;1.77;;;1.10;;
16385;SDS011;8302;51.154;4.456;2023-04-24T03:19:05;1.15;;;0.80;;
16385;SDS011;8302;51.154;4.456;2023-04-24T03:21:43;1.80;;;0.90;;
16385;SDS011;8302;51.154;4.456;2023-04-24T03:24:11;1.80;;;0.90;;
16385;SDS011;8302;51.154;4.456;2023-04-24T03:26:40;1.58;;;1.33;;
16385;SDS011;8302;51.154;4.456;2023-04-24T03:29:33;1.17;;;1.08;;
16385;SDS011;8302;51.154;4.456;2023-04-24T03:32:02;1.23;;;1.00;;
16385;SDS011;8302;51.154;4.456;2023-04-24T03:34:30;0.93;;;0.77;;
16385;SDS011;8302;51.154;4.456;2023-04-24T03:36:59;1.25;;;1.15;;
16385;SDS011;8302;51.154;4.456;2023-04-24T03:39:29;1.63;;;1.10;;
16385;SDS011;8302;51.154;4.456;2023-04-24T03:41:57;2.33;;;1.40;;
16385;SDS011;8302;51.154;4.456;2023-04-24T03:44:35;0.68;;;0.68;;
16385;SDS011;8302;51.154;4.456;2023-04-24T03:47:03;0.93;;;0.82;;
16385;SDS011;8302;51.154;4.456;2023-04-24T03:49:32;1.45;;;1.00;;
16385;SDS011;8302;51.154;4.456;2023-04-24T03:52:01;2.03;;;1.42;;
16385;SDS011;8302;51.154;4.456;2023-04-24T03:54:29;2.05;;;1.00;;
16385;SDS011;8302;51.154;4.456;2023-04-24T03:56:58;0.82;;;0.70;;
16385;SDS011;8302;51.154;4.456;2023-04-24T03:59:27;0.95;;;0.80;;
16385;SDS011;8302;51.154;4.456;2023-04-24T04:02:13;2.10;;;1.08;;
16385;SDS011;8302;51.154;4.456;2023-04-24T04:04:41;0.70;;;0.70;;
16385;SDS011;8302;51.154;4.456;2023-04-24T04:07:11;2.60;;;0.75;;
16385;SDS011;8302;51.154;4.456;2023-04-24T04:09:39;1.05;;;0.90;;
16385;SDS011;8302;51.154;4.456;2023-04-24T04:12:08;0.68;;;0.68;;
16385;SDS011;8302;51.154;4.456;2023-04-24T04:14:37;2.28;;;0.90;;
16385;SDS011;8302;51.154;4.456;2023-04-24T04:17:05;2.40;;;1.00;;
16385;SDS011;8302;51.154;4.456;2023-04-24T04:19:34;0.95;;;0.95;;
16385;SDS011;8302;51.154;4.456;2023-04-24T04:22:02;1.73;;;1.10;;
16385;SDS011;8302;51.154;4.456;2023-04-24T04:24:40;0.57;;;0.57;;
16385;SDS011;8302;51.154;4.456;2023-04-24T04:27:09;2.25;;;0.98;;
16385;SDS011;8302;51.154;4.456;2023-04-24T04:29:45;1.13;;;0.60;;
16385;SDS011;8302;51.154;4.456;2023-04-24T04:32:14;2.38;;;0.63;;
16385;SDS011;8302;51.154;4.456;2023-04-24T04:34:43;0.98;;;0.73;;
16385;SDS011;8302;51.154;4.456;2023-04-24T04:37:12;1.25;;;1.10;;
16385;SDS011;8302;51.154;4.456;2023-04-24T04:39:51;1.00;;;0.90;;
16385;SDS011;8302;51.154;4.456;2023-04-24T04:42:23;1.02;;;0.93;;
16385;SDS011;8302;51.154;4.456;2023-04-24T04:44:51;1.23;;;0.80;;
16385;SDS011;8302;51.154;4.456;2023-04-24T04:47:25;0.80;;;0.80;;
16385;SDS011;8302;51.154;4.456;2023-04-24T04:49:56;1.52;;;1.05;;
16385;SDS011;8302;51.154;4.456;2023-04-24T04:52:26;1.40;;;1.20;;
16385;SDS011;8302;51.154;4.456;2023-04-24T04:55:05;0.65;;;0.50;;
16385;SDS011;8302;51.154;4.456;2023-04-24T04:57:56;1.60;;;0.90;;
16385;SDS011;8302;51.154;4.456;2023-04-24T05:00:27;1.02;;;0.80;;
16385;SDS011;8302;51.154;4.456;2023-04-24T05:03:09;1.10;;;0.82;;
16385;SDS011;8302;51.154;4.456;2023-04-24T05:05:51;1.20;;;0.85;;
16385;SDS011;8302;51.154;4.456;2023-04-24T05:08:19;2.63;;;1.10;;
16385;SDS011;8302;51.154;4.456;2023-04-24T05:10:55;1.33;;;1.10;;
16385;SDS011;8302;51.154;4.456;2023-04-24T05:13:25;3.83;;;0.63;;
16385;SDS011;8302;51.154;4.456;2023-04-24T05:16:09;1.63;;;1.42;;
16385;SDS011;8302;51.154;4.456;2023-04-24T05:18:37;1.17;;;1.05;;
16385;SDS011;8302;51.154;4.456;2023-04-24T05:21:08;2.28;;;1.48;;
16385;SDS011;8302;51.154;4.456;2023-04-24T05:23:39;1.83;;;1.10;;
16385;SDS011;8302;51.154;4.456;2023-04-24T05:26:08;2.50;;;1.55;;
16385;SDS011;8302;51.154;4.456;2023-04-24T05:28:36;1.83;;;1.30;;
16385;SDS011;8302;51.154;4.456;2023-04-24T05:31:08;1.50;;;0.73;;
16385;SDS011;8302;51.154;4.456;2023-04-24T05:33:36;1.55;;;1.20;;
16385;SDS011;8302;51.154;4.456;2023-04-24T05:36:05;3.55;;;0.88;;
16385;SDS011;8302;51.154;4.456;2023-04-24T05:38:33;2.17;;;1.10;;
16385;SDS011;8302;51.154;4.456;2023-04-24T05:41:02;2.40;;;1.20;;
16385;SDS011;8302;51.154;4.456;2023-04-24T05:43:31;4.85;;;2.08;;
16385;SDS011;8302;51.154;4.456;2023-04-24T05:45:59;4.22;;;0.90;;
16385;SDS011;8302;51.154;4.456;2023-04-24T05:48:27;9.23;;;1.08;;
16385;SDS011;8302;51.154;4.456;2023-04-24T05:50:55;1.20;;;0.77;;
16385;SDS011;8302;51.154;4.456;2023-04-24T05:53:24;2.67;;;1.33;;
16385;SDS011;8302;51.154;4.456;2023-04-24T05:55:51;1.10;;;0.77;;
16385;SDS011;8302;51.154;4.456;2023-04-24T05:58:20;3.03;;;1.33;;
16385;SDS011;8302;51.154;4.456;2023-04-24T06:00:50;2.38;;;0.98;;
16385;SDS011;8302;51.154;4.456;2023-04-24T06:03:18;2.15;;;1.15;;
16385;SDS011;8302;51.154;4.456;2023-04-24T06:05:48;2.10;;;1.58;;
16385;SDS011;8302;51.154;4.456;2023-04-24T06:08:17;5.07;;;1.38;;
16385;SDS011;8302;51.154;4.456;2023-04-24T06:10:46;2.85;;;1.70;;
16385;SDS011;8302;51.154;4.456;2023-04-24T06:13:17;1.85;;;1.25;;
16385;SDS011;8302;51.154;4.456;2023-04-24T06:16:06;4.53;;;2.28;;
16385;SDS011;8302;51.154;4.456;2023-04-24T06:18:38;6.15;;;2.00;;
16385;SDS011;8302;51.154;4.456;2023-04-24T06:21:06;1.65;;;1.35;;
16385;SDS011;8302;51.154;4.456;2023-04-24T06:23:34;2.00;;;1.70;;
16385;SDS011;8302;51.154;4.456;2023-04-24T06:26:01;1.08;;;0.90;;
16385;SDS011;8302;51.154;4.456;2023-04-24T06:28:31;4.28;;;1.80;;
16385;SDS011;8302;51.154;4.456;2023-04-24T06:30:59;2.60;;;1.70;;
16385;SDS011;8302;51.154;4.456;2023-04-24T06:33:28;3.85;;;2.25;;
16385;SDS011;8302;51.154;4.456;2023-04-24T06:35:57;2.42;;;1.73;;
16385;SDS011;8302;51.154;4.456;2023-04-24T06:38:25;8.25;;;2.03;;
16385;SDS011;8302;51.154;4.456;2023-04-24T06:40:53;1.40;;;1.00;;
16385;SDS011;8302;51.154;4.456;2023-04-24T06:43:21;2.25;;;1.30;;
16385;SDS011;8302;51.154;4.456;2023-04-24T06:45:49;2.80;;;1.63;;
16385;SDS011;8302;51.154;4.456;2023-04-24T06:48:17;5.13;;;2.33;;
16385;SDS011;8302;51.154;4.456;2023-04-24T06:50:46;1.70;;;1.58;;
16385;SDS011;8302;51.154;4.456;2023-04-24T06:53:15;2.63;;;1.27;;
16385;SDS011;8302;51.154;4.456;2023-04-24T06:55:43;1.88;;;1.45;;
16385;SDS011;8302;51.154;4.456;2023-04-24T06:58:11;7.95;;;1.85;;
16385;SDS011;8302;51.154;4.456;2023-04-24T07:00:39;3.72;;;1.63;;
16385;SDS011;8302;51.154;4.456;2023-04-24T07:03:07;1.95;;;1.63;;
16385;SDS011;8302;51.154;4.456;2023-04-24T07:05:36;4.40;;;1.73;;
16385;SDS011;8302;51.154;4.456;2023-04-24T07:08:06;1.45;;;0.98;;
16385;SDS011;8302;51.154;4.456;2023-04-24T07:10:35;3.67;;;1.38;;
16385;SDS011;8302;51.154;4.456;2023-04-24T07:13:03;1.80;;;1.45;;
16385;SDS011;8302;51.154;4.456;2023-04-24T07:15:31;5.53;;;1.60;;
16385;SDS011;8302;51.154;4.456;2023-04-24T07:17:59;3.08;;;1.52;;
16385;SDS011;8302;51.154;4.456;2023-04-24T07:20:31;1.10;;;0.77;;
16385;SDS011;8302;51.154;4.456;2023-04-24T07:22:59;1.30;;;1.20;;
16385;SDS011;8302;51.154;4.456;2023-04-24T07:25:29;9.10;;;2.22;;
16385;SDS011;8302;51.154;4.456;2023-04-24T07:27:57;4.30;;;1.58;;
16385;SDS011;8302;51.154;4.456;2023-04-24T07:30:26;2.28;;;1.50;;
16385;SDS011;8302;51.154;4.456;2023-04-24T07:32:55;1.75;;;0.63;;
16385;SDS011;8302;51.154;4.456;2023-04-24T07:35:23;1.98;;;1.02;;
16385;SDS011;8302;51.154;4.456;2023-04-24T07:37:52;4.95;;;1.40;;
16385;SDS011;8302;51.154;4.456;2023-04-24T07:40:20;3.70;;;1.67;;
16385;SDS011;8302;51.154;4.456;2023-04-24T07:42:50;2.40;;;1.67;;
16385;SDS011;8302;51.154;4.456;2023-04-24T07:45:18;1.15;;;1.05;;
16385;SDS011;8302;51.154;4.456;2023-04-24T07:47:46;1.23;;;0.80;;
16385;SDS011;8302;51.154;4.456;2023-04-24T07:50:13;2.30;;;1.25;;
16385;SDS011;8302;51.154;4.456;2023-04-24T07:52:41;1.13;;;0.98;;
16385;SDS011;8302;51.154;4.456;2023-04-24T07:55:09;4.53;;;1.25;;
16385;SDS011;8302;51.154;4.456;2023-04-24T07:57:37;5.18;;;1.30;;
16385;SDS011;8302;51.154;4.456;2023-04-24T08:00:07;2.22;;;1.40;;
16385;SDS011;8302;51.154;4.456;2023-04-24T08:02:38;4.07;;;1.63;;
16385;SDS011;8302;51.154;4.456;2023-04-24T08:05:07;2.35;;;1.20;;
16385;SDS011;8302;51.154;4.456;2023-04-24T08:07:35;0.85;;;0.70;;
16385;SDS011;8302;51.154;4.456;2023-04-24T08:10:03;7.85;;;1.67;;
16385;SDS011;8302;51.154;4.456;2023-04-24T08:12:32;3.42;;;1.25;;
16385;SDS011;8302;51.154;4.456;2023-04-24T08:14:59;4.05;;;1.17;;
16385;SDS011;8302;51.154;4.456;2023-04-24T08:17:29;1.75;;;0.95;;
16385;SDS011;8302;51.154;4.456;2023-04-24T08:19:59;2.55;;;1.40;;
16385;SDS011;8302;51.154;4.456;2023-04-24T08:22:29;1.75;;;1.30;;
16385;SDS011;8302;51.154;4.456;2023-04-24T08:24:57;1.52;;;1.13;;
16385;SDS011;8302;51.154;4.456;2023-04-24T08:27:25;4.40;;;1.13;;
16385;SDS011;8302;51.154;4.456;2023-04-24T08:29:53;1.17;;;0.57;;
16385;SDS011;8302;51.154;4.456;2023-04-24T08:32:22;2.72;;;1.20;;
16385;SDS011;8302;51.154;4.456;2023-04-24T08:34:51;2.60;;;1.35;;
16385;SDS011;8302;51.154;4.456;2023-04-24T08:37:19;1.83;;;1.00;;
16385;SDS011;8302;51.154;4.456;2023-04-24T08:39:47;2.75;;;1.88;;
16385;SDS011;8302;51.154;4.456;2023-04-24T08:42:16;3.85;;;1.27;;
16385;SDS011;8302;51.154;4.456;2023-04-24T08:44:44;1.40;;;1.15;;
16385;SDS011;8302;51.154;4.456;2023-04-24T08:47:12;4.90;;;1.52;;
16385;SDS011;8302;51.154;4.456;2023-04-24T08:49:41;2.35;;;1.48;;
16385;SDS011;8302;51.154;4.456;2023-04-24T08:52:12;1.10;;;0.95;;
16385;SDS011;8302;51.154;4.456;2023-04-24T08:54:40;1.02;;;0.65;;
16385;SDS011;8302;51.154;4.456;2023-04-24T08:57:10;3.22;;;0.82;;
16385;SDS011;8302;51.154;4.456;2023-04-24T08:59:38;3.75;;;1.23;;
16385;SDS011;8302;51.154;4.456;2023-04-24T09:02:08;2.53;;;1.27;;
16385;SDS011;8302;51.154;4.456;2023-04-24T09:04:38;1.30;;;1.10;;
16385;SDS011;8302;51.154;4.456;2023-04-24T09:07:08;2.13;;;1.30;;
16385;SDS011;8302;51.154;4.456;2023-04-24T09:09:39;4.07;;;1.23;;
16385;SDS011;8302;51.154;4.456;2023-04-24T09:12:08;3.25;;;1.40;;
16385;SDS011;8302;51.154;4.456;2023-04-24T09:14:37;5.60;;;0.88;;
16385;SDS011;8302;51.154;4.456;2023-04-24T09:17:09;2.85;;;1.25;;
16385;SDS011;8302;51.154;4.456;2023-04-24T09:19:37;1.77;;;0.90;;
16385;SDS011;8302;51.154;4.456;2023-04-24T09:22:05;1.23;;;1.10;;
16385;SDS011;8302;51.154;4.456;2023-04-24T09:24:33;4.30;;;1.27;;
16385;SDS011;8302;51.154;4.456;2023-04-24T09:27:03;3.78;;;0.63;;
16385;SDS011;8302;51.154;4.456;2023-04-24T09:29:31;1.65;;;1.08;;
16385;SDS011;8302;51.154;4.456;2023-04-24T09:31:59;2.90;;;1.20;;
16385;SDS011;8302;51.154;4.456;2023-04-24T09:34:45;1.38;;;1.00;;
16385;SDS011;8302;51.154;4.456;2023-04-24T09:37:21;0.55;;;0.55;;
16385;SDS011;8302;51.154;4.456;2023-04-24T09:40:06;1.00;;;0.82;;
16385;SDS011;8302;51.154;4.456;2023-04-24T09:42:36;1.58;;;0.90;;
16385;SDS011;8302;51.154;4.456;2023-04-24T09:45:04;2.08;;;1.13;;
16385;SDS011;8302;51.154;4.456;2023-04-24T09:47:37;1.00;;;0.63;;
16385;SDS011;8302;51.154;4.456;2023-04-24T09:50:09;0.60;;;0.60;;
16385;SDS011;8302;51.154;4.456;2023-04-24T09:52:39;0.63;;;0.63;;
16385;SDS011;8302;51.154;4.456;2023-04-24T09:55:11;0.75;;;0.57;;
16385;SDS011;8302;51.154;4.456;2023-04-24T09:57:47;0.43;;;0.43;;
16385;SDS011;8302;51.154;4.456;2023-04-24T10:00:21;4.30;;;1.42;;
16385;SDS011;8302;51.154;4.456;2023-04-24T10:02:50;2.88;;;1.15;;
16385;SDS011;8302;51.154;4.456;2023-04-24T10:05:18;2.17;;;0.80;;
16385;SDS011;8302;51.154;4.456;2023-04-24T10:07:47;0.63;;;0.57;;
16385;SDS011;8302;51.154;4.456;2023-04-24T10:10:15;1.48;;;1.00;;
16385;SDS011;8302;51.154;4.456;2023-04-24T10:12:44;1.77;;;1.00;;
16385;SDS011;8302;51.154;4.456;2023-04-24T10:15:14;2.15;;;1.05;;
16385;SDS011;8302;51.154;4.456;2023-04-24T10:17:44;0.45;;;0.45;;
16385;SDS011;8302;51.154;4.456;2023-04-24T10:20:22;1.98;;;1.05;;
16385;SDS011;8302;51.154;4.456;2023-04-24T10:22:50;1.23;;;0.73;;
16385;SDS011;8302;51.154;4.456;2023-04-24T10:25:19;2.33;;;0.95;;
16385;SDS011;8302;51.154;4.456;2023-04-24T10:27:48;1.08;;;0.80;;
16385;SDS011;8302;51.154;4.456;2023-04-24T10:30:18;1.30;;;0.70;;
16385;SDS011;8302;51.154;4.456;2023-04-24T10:32:46;0.50;;;0.50;;
16385;SDS011;8302;51.154;4.456;2023-04-24T10:35:15;1.88;;;0.73;;
16385;SDS011;8302;51.154;4.456;2023-04-24T10:37:44;2.47;;;0.98;;
16385;SDS011;8302;51.154;4.456;2023-04-24T10:40:16;1.25;;;0.70;;
16385;SDS011;8302;51.154;4.456;2023-04-24T10:42:46;0.50;;;0.50;;
16385;SDS011;8302;51.154;4.456;2023-04-24T10:45:19;1.88;;;1.10;;
16385;SDS011;8302;51.154;4.456;2023-04-24T10:47:51;1.15;;;1.05;;
16385;SDS011;8302;51.154;4.456;2023-04-24T10:50:20;1.17;;;0.57;;
16385;SDS011;8302;51.154;4.456;2023-04-24T10:52:48;4.03;;;1.33;;
16385;SDS011;8302;51.154;4.456;2023-04-24T10:55:29;1.88;;;1.13;;
16385;SDS011;8302;51.154;4.456;2023-04-24T10:58:06;2.13;;;1.10;;
16385;SDS011;8302;51.154;4.456;2023-04-24T11:00:37;2.72;;;0.70;;
16385;SDS011;8302;51.154;4.456;2023-04-24T11:03:06;0.73;;;0.70;;
16385;SDS011;8302;51.154;4.456;2023-04-24T11:05:50;0.40;;;0.40;;
16385;SDS011;8302;51.154;4.456;2023-04-24T11:08:22;1.20;;;1.02;;
16385;SDS011;8302;51.154;4.456;2023-04-24T11:10:55;1.80;;;1.30;;
16385;SDS011;8302;51.154;4.456;2023-04-24T11:13:23;0.75;;;0.75;;
16385;SDS011;8302;51.154;4.456;2023-04-24T11:18:38;0.75;;;0.68;;
16385;SDS011;8302;51.154;4.456;2023-04-24T11:21:10;2.00;;;1.08;;
16385;SDS011;8302;51.154;4.456;2023-04-24T11:23:37;1.00;;;0.80;;
16385;SDS011;8302;51.154;4.456;2023-04-24T11:26:11;2.42;;;0.98;;
16385;SDS011;8302;51.154;4.456;2023-04-24T11:28:46;2.50;;;0.82;;
16385;SDS011;8302;51.154;4.456;2023-04-24T11:34:07;0.77;;;0.57;;
16385;SDS011;8302;51.154;4.456;2023-04-24T11:36:35;2.05;;;0.68;;
16385;SDS011;8302;51.154;4.456;2023-04-24T11:39:03;2.45;;;1.15;;
16385;SDS011;8302;51.154;4.456;2023-04-24T11:41:31;0.73;;;0.60;;
16385;SDS011;8302;51.154;4.456;2023-04-24T11:43:59;1.30;;;0.88;;
16385;SDS011;8302;51.154;4.456;2023-04-24T11:46:28;2.92;;;1.02;;
16385;SDS011;8302;51.154;4.456;2023-04-24T11:48:57;0.73;;;0.60;;
16385;SDS011;8302;51.154;4.456;2023-04-24T11:51:27;2.53;;;1.15;;
16385;SDS011;8302;51.154;4.456;2023-04-24T11:54:07;0.40;;;0.40;;
16385;SDS011;8302;51.154;4.456;2023-04-24T11:56:35;2.10;;;0.90;;
16385;SDS011;8302;51.154;4.456;2023-04-24T11:59:04;0.95;;;0.88;;
16385;SDS011;8302;51.154;4.456;2023-04-24T12:01:42;0.90;;;0.50;;
16385;SDS011;8302;51.154;4.456;2023-04-24T12:04:10;0.77;;;0.52;;
16385;SDS011;8302;51.154;4.456;2023-04-24T12:06:40;1.52;;;0.85;;
16385;SDS011;8302;51.154;4.456;2023-04-24T12:09:08;1.23;;;0.70;;
16385;SDS011;8302;51.154;4.456;2023-04-24T12:11:52;0.57;;;0.57;;
16385;SDS011;8302;51.154;4.456;2023-04-24T12:14:20;0.75;;;0.75;;
16385;SDS011;8302;51.154;4.456;2023-04-24T12:16:48;0.90;;;0.77;;
16385;SDS011;8302;51.154;4.456;2023-04-24T12:19:17;1.85;;;0.80;;
16385;SDS011;8302;51.154;4.456;2023-04-24T12:21:59;0.82;;;0.80;;
16385;SDS011;8302;51.154;4.456;2023-04-24T12:24:27;0.47;;;0.40;;
16385;SDS011;8302;51.154;4.456;2023-04-24T12:26:55;1.42;;;0.77;;
16385;SDS011;8302;51.154;4.456;2023-04-24T12:29:23;0.43;;;0.43;;
16385;SDS011;8302;51.154;4.456;2023-04-24T12:31:51;0.15;;;0.15;;
16385;SDS011;8302;51.154;4.456;2023-04-24T12:34:19;0.90;;;0.57;;
16385;SDS011;8302;51.154;4.456;2023-04-24T12:36:47;2.65;;;0.90;;
16385;SDS011;8302;51.154;4.456;2023-04-24T12:39:17;0.68;;;0.40;;
16385;SDS011;8302;51.154;4.456;2023-04-24T12:41:55;0.50;;;0.50;;
16385;SDS011;8302;51.154;4.456;2023-04-24T12:44:31;0.65;;;0.55;;
16385;SDS011;8302;51.154;4.456;2023-04-24T12:47:01;0.32;;;0.32;;
16385;SDS011;8302;51.154;4.456;2023-04-24T12:49:29;1.13;;;0.57;;
16385;SDS011;8302;51.154;4.456;2023-04-24T12:51:57;0.30;;;0.30;;
16385;SDS011;8302;51.154;4.456;2023-04-24T12:54:27;0.50;;;0.30;;
16385;SDS011;8302;51.154;4.456;2023-04-24T12:56:59;0.45;;;0.45;;
16385;SDS011;8302;51.154;4.456;2023-04-24T12:59:28;0.88;;;0.80;;
16385;SDS011;8302;51.154;4.456;2023-04-24T13:01:56;0.40;;;0.40;;
16385;SDS011;8302;51.154;4.456;2023-04-24T13:04:24;0.52;;;0.52;;
16385;SDS011;8302;51.154;4.456;2023-04-24T13:06:52;0.68;;;0.40;;
16385;SDS011;8302;51.154;4.456;2023-04-24T13:09:20;0.50;;;0.50;;
16385;SDS011;8302;51.154;4.456;2023-04-24T13:11:49;0.65;;;0.50;;
16385;SDS011;8302;51.154;4.456;2023-04-24T13:14:17;0.68;;;0.60;;
16385;SDS011;8302;51.154;4.456;2023-04-24T13:16:46;0.60;;;0.60;;
16385;SDS011;8302;51.154;4.456;2023-04-24T13:19:14;0.30;;;0.30;;
16385;SDS011;8302;51.154;4.456;2023-04-24T13:21:41;1.85;;;0.80;;
16385;SDS011;8302;51.154;4.456;2023-04-24T13:24:09;2.45;;;0.65;;
16385;SDS011;8302;51.154;4.456;2023-04-24T13:26:37;0.55;;;0.45;;
16385;SDS011;8302;51.154;4.456;2023-04-24T13:29:07;3.15;;;0.70;;
16385;SDS011;8302;51.154;4.456;2023-04-24T13:31:35;1.40;;;0.63;;
16385;SDS011;8302;51.154;4.456;2023-04-24T13:34:03;0.75;;;0.40;;
16385;SDS011;8302;51.154;4.456;2023-04-24T13:36:31;0.40;;;0.40;;
16385;SDS011;8302;51.154;4.456;2023-04-24T13:38:59;3.53;;;0.38;;
16385;SDS011;8302;51.154;4.456;2023-04-24T13:41:27;0.55;;;0.45;;
16385;SDS011;8302;51.154;4.456;2023-04-24T13:43:55;0.85;;;0.65;;
16385;SDS011;8302;51.154;4.456;2023-04-24T13:46:24;1.02;;;0.57;;
16385;SDS011;8302;51.154;4.456;2023-04-24T13:48:52;0.47;;;0.47;;
16385;SDS011;8302;51.154;4.456;2023-04-24T13:51:20;0.40;;;0.30;;
16385;SDS011;8302;51.154;4.456;2023-04-24T13:53:48;0.35;;;0.35;;
16385;SDS011;8302;51.154;4.456;2023-04-24T13:56:16;0.32;;;0.30;;
16385;SDS011;8302;51.154;4.456;2023-04-24T13:58:44;1.45;;;0.40;;
16385;SDS011;8302;51.154;4.456;2023-04-24T14:01:12;0.15;;;0.15;;
16385;SDS011;8302;51.154;4.456;2023-04-24T14:03:41;4.43;;;0.50;;
16385;SDS011;8302;51.154;4.456;2023-04-24T14:06:10;1.38;;;0.43;;
16385;SDS011;8302;51.154;4.456;2023-04-24T14:08:38;0.60;;;0.52;;
16385;SDS011;8302;51.154;4.456;2023-04-24T14:11:06;0.50;;;0.50;;
16385;SDS011;8302;51.154;4.456;2023-04-24T14:13:35;0.90;;;0.60;;
16385;SDS011;8302;51.154;4.456;2023-04-24T14:16:03;0.30;;;0.30;;
16385;SDS011;8302;51.154;4.456;2023-04-24T14:18:31;1.15;;;0.95;;
16385;SDS011;8302;51.154;4.456;2023-04-24T14:21:00;1.45;;;0.40;;
16385;SDS011;8302;51.154;4.456;2023-04-24T14:23:28;0.30;;;0.30;;
16385;SDS011;8302;51.154;4.456;2023-04-24T14:25:56;1.52;;;1.05;;
16385;SDS011;8302;51.154;4.456;2023-04-24T14:28:25;0.50;;;0.40;;
16385;SDS011;8302;51.154;4.456;2023-04-24T14:30:53;0.70;;;0.57;;
16385;SDS011;8302;51.154;4.456;2023-04-24T14:33:21;0.52;;;0.52;;
16385;SDS011;8302;51.154;4.456;2023-04-24T14:35:49;0.80;;;0.52;;
16385;SDS011;8302;51.154;4.456;2023-04-24T14:38:18;0.22;;;0.22;;
16385;SDS011;8302;51.154;4.456;2023-04-24T14:40:46;0.30;;;0.30;;
16385;SDS011;8302;51.154;4.456;2023-04-24T14:43:17;1.02;;;0.88;;
16385;SDS011;8302;51.154;4.456;2023-04-24T14:45:45;0.25;;;0.25;;
16385;SDS011;8302;51.154;4.456;2023-04-24T14:48:13;2.30;;;0.68;;
16385;SDS011;8302;51.154;4.456;2023-04-24T14:50:42;1.17;;;0.50;;
16385;SDS011;8302;51.154;4.456;2023-04-24T14:53:11;0.68;;;0.40;;
16385;SDS011;8302;51.154;4.456;2023-04-24T14:55:40;0.35;;;0.35;;
16385;SDS011;8302;51.154;4.456;2023-04-24T14:58:08;1.52;;;0.50;;
16385;SDS011;8302;51.154;4.456;2023-04-24T15:00:36;1.15;;;0.57;;
16385;SDS011;8302;51.154;4.456;2023-04-24T15:03:04;0.77;;;0.68;;
16385;SDS011;8302;51.154;4.456;2023-04-24T15:05:33;0.55;;;0.32;;
16385;SDS011;8302;51.154;4.456;2023-04-24T15:08:01;0.70;;;0.47;;
16385;SDS011;8302;51.154;4.456;2023-04-24T15:10:29;0.50;;;0.50;;
16385;SDS011;8302;51.154;4.456;2023-04-24T15:12:58;0.52;;;0.40;;
16385;SDS011;8302;51.154;4.456;2023-04-24T15:15:26;1.80;;;0.28;;
16385;SDS011;8302;51.154;4.456;2023-04-24T15:17:54;0.60;;;0.57;;
16385;SDS011;8302;51.154;4.456;2023-04-24T15:20:22;0.40;;;0.40;;